sensor_id;sensor_type;location;lat;lon;timestamp;P1;durP1;ratioP1;P2;durP2;ratioP2
22634;SDS011;11484;50.858;4.384;2023-05-07T00:00:47;6.28;;;2.95;;
22634;SDS011;11484;50.858;4.384;2023-05-07T00:03:13;5.10;;;2.50;;
22634;SDS011;11484;50.858;4.384;2023-05-07T00:05:38;5.90;;;2.85;;
22634;SDS011;11484;50.858;4.384;2023-05-07T00:08:04;6.22;;;2.65;;
22634;SDS011;11484;50.858;4.384;2023-05-07T00:10:30;5.00;;;2.53;;
22634;SDS011;11484;50.858;4.384;2023-05-07T00:12:56;4.63;;;2.67;;
22634;SDS011;11484;50.858;4.384;2023-05-07T00:15:24;4.90;;;3.20;;
22634;SDS011;11484;50.858;4.384;2023-05-07T00:17:50;6.55;;;2.70;;
22634;SDS011;11484;50.858;4.384;2023-05-07T00:20:15;5.75;;;3.25;;
22634;SDS011;11484;50.858;4.384;2023-05-07T00:22:41;4.45;;;2.70;;
22634;SDS011;11484;50.858;4.384;2023-05-07T00:25:07;6.65;;;2.88;;
22634;SDS011;11484;50.858;4.384;2023-05-07T00:27:33;5.43;;;2.88;;
22634;SDS011;11484;50.858;4.384;2023-05-07T00:29:58;4.03;;;2.38;;
22634;SDS011;11484;50.858;4.384;2023-05-07T00:32:24;8.15;;;2.80;;
22634;SDS011;11484;50.858;4.384;2023-05-07T00:34:50;6.20;;;2.58;;
22634;SDS011;11484;50.858;4.384;2023-05-07T00:37:16;5.45;;;2.53;;
22634;SDS011;11484;50.858;4.384;2023-05-07T00:39:41;8.82;;;3.10;;
22634;SDS011;11484;50.858;4.384;2023-05-07T00:42:07;5.40;;;2.38;;
22634;SDS011;11484;50.858;4.384;2023-05-07T00:44:33;6.18;;;2.88;;
22634;SDS011;11484;50.858;4.384;2023-05-07T00:46:58;5.07;;;2.60;;
22634;SDS011;11484;50.858;4.384;2023-05-07T00:49:37;6.27;;;2.80;;
22634;SDS011;11484;50.858;4.384;2023-05-07T00:52:05;4.88;;;2.55;;
22634;SDS011;11484;50.858;4.384;2023-05-07T00:54:36;4.38;;;2.70;;
22634;SDS011;11484;50.858;4.384;2023-05-07T00:57:02;9.13;;;2.67;;
22634;SDS011;11484;50.858;4.384;2023-05-07T00:59:29;6.38;;;2.53;;
22634;SDS011;11484;50.858;4.384;2023-05-07T01:01:56;7.07;;;2.53;;
22634;SDS011;11484;50.858;4.384;2023-05-07T01:04:22;4.25;;;2.38;;
22634;SDS011;11484;50.858;4.384;2023-05-07T01:06:48;6.05;;;2.47;;
22634;SDS011;11484;50.858;4.384;2023-05-07T01:09:15;3.95;;;2.45;;
22634;SDS011;11484;50.858;4.384;2023-05-07T01:11:46;6.60;;;2.30;;
22634;SDS011;11484;50.858;4.384;2023-05-07T01:14:12;4.88;;;2.28;;
22634;SDS011;11484;50.858;4.384;2023-05-07T01:16:38;4.70;;;2.92;;
22634;SDS011;11484;50.858;4.384;2023-05-07T01:19:06;5.35;;;2.20;;
22634;SDS011;11484;50.858;4.384;2023-05-07T01:21:33;5.65;;;2.58;;
22634;SDS011;11484;50.858;4.384;2023-05-07T01:24:02;7.38;;;2.53;;
22634;SDS011;11484;50.858;4.384;2023-05-07T01:26:28;4.60;;;2.53;;
22634;SDS011;11484;50.858;4.384;2023-05-07T01:28:54;9.48;;;2.42;;
22634;SDS011;11484;50.858;4.384;2023-05-07T01:31:20;5.15;;;2.20;;
22634;SDS011;11484;50.858;4.384;2023-05-07T01:33:46;6.22;;;2.47;;
22634;SDS011;11484;50.858;4.384;2023-05-07T01:36:15;6.15;;;2.60;;
22634;SDS011;11484;50.858;4.384;2023-05-07T01:38:43;5.82;;;2.20;;
22634;SDS011;11484;50.858;4.384;2023-05-07T01:41:09;6.93;;;2.60;;
22634;SDS011;11484;50.858;4.384;2023-05-07T01:43:36;6.55;;;2.45;;
22634;SDS011;11484;50.858;4.384;2023-05-07T01:46:02;6.75;;;2.60;;
22634;SDS011;11484;50.858;4.384;2023-05-07T01:48:28;5.55;;;2.20;;
22634;SDS011;11484;50.858;4.384;2023-05-07T01:50:54;6.10;;;2.65;;
22634;SDS011;11484;50.858;4.384;2023-05-07T01:53:20;4.95;;;2.15;;
22634;SDS011;11484;50.858;4.384;2023-05-07T01:55:46;7.75;;;3.13;;
22634;SDS011;11484;50.858;4.384;2023-05-07T01:58:12;7.13;;;2.55;;
22634;SDS011;11484;50.858;4.384;2023-05-07T02:00:37;9.30;;;3.30;;
22634;SDS011;11484;50.858;4.384;2023-05-07T02:03:03;6.35;;;2.60;;
22634;SDS011;11484;50.858;4.384;2023-05-07T02:05:29;6.57;;;3.05;;
22634;SDS011;11484;50.858;4.384;2023-05-07T02:07:55;8.02;;;2.80;;
22634;SDS011;11484;50.858;4.384;2023-05-07T02:10:20;7.57;;;2.78;;
22634;SDS011;11484;50.858;4.384;2023-05-07T02:12:46;4.57;;;2.53;;
22634;SDS011;11484;50.858;4.384;2023-05-07T02:15:12;5.00;;;2.30;;
22634;SDS011;11484;50.858;4.384;2023-05-07T02:20:26;5.53;;;2.60;;
22634;SDS011;11484;50.858;4.384;2023-05-07T02:22:52;4.78;;;2.38;;
22634;SDS011;11484;50.858;4.384;2023-05-07T02:25:18;5.75;;;2.50;;
22634;SDS011;11484;50.858;4.384;2023-05-07T02:27:43;6.07;;;2.72;;
22634;SDS011;11484;50.858;4.384;2023-05-07T02:30:09;5.63;;;2.05;;
22634;SDS011;11484;50.858;4.384;2023-05-07T02:32:36;5.53;;;2.60;;
22634;SDS011;11484;50.858;4.384;2023-05-07T02:35:01;4.85;;;2.28;;
22634;SDS011;11484;50.858;4.384;2023-05-07T02:37:27;5.47;;;2.88;;
22634;SDS011;11484;50.858;4.384;2023-05-07T02:39:53;7.03;;;2.80;;
22634;SDS011;11484;50.858;4.384;2023-05-07T02:42:19;7.13;;;3.13;;
22634;SDS011;11484;50.858;4.384;2023-05-07T02:44:44;6.10;;;2.67;;
22634;SDS011;11484;50.858;4.384;2023-05-07T02:47:10;5.78;;;2.53;;
22634;SDS011;11484;50.858;4.384;2023-05-07T02:49:38;5.53;;;2.50;;
22634;SDS011;11484;50.858;4.384;2023-05-07T02:52:04;6.18;;;2.80;;
22634;SDS011;11484;50.858;4.384;2023-05-07T02:54:29;5.07;;;2.28;;
22634;SDS011;11484;50.858;4.384;2023-05-07T02:56:55;4.70;;;2.60;;
22634;SDS011;11484;50.858;4.384;2023-05-07T02:59:21;5.50;;;2.33;;
22634;SDS011;11484;50.858;4.384;2023-05-07T03:01:47;5.07;;;2.30;;
22634;SDS011;11484;50.858;4.384;2023-05-07T03:04:13;4.93;;;2.28;;
22634;SDS011;11484;50.858;4.384;2023-05-07T03:06:39;5.35;;;2.63;;
22634;SDS011;11484;50.858;4.384;2023-05-07T03:09:04;4.07;;;2.28;;
22634;SDS011;11484;50.858;4.384;2023-05-07T03:11:30;7.90;;;2.40;;
22634;SDS011;11484;50.858;4.384;2023-05-07T03:13:56;6.32;;;2.80;;
22634;SDS011;11484;50.858;4.384;2023-05-07T03:16:21;6.28;;;2.40;;
22634;SDS011;11484;50.858;4.384;2023-05-07T03:18:47;5.35;;;2.90;;
22634;SDS011;11484;50.858;4.384;2023-05-07T03:21:12;6.38;;;2.70;;
22634;SDS011;11484;50.858;4.384;2023-05-07T03:23:38;10.60;;;2.70;;
22634;SDS011;11484;50.858;4.384;2023-05-07T03:26:04;5.55;;;2.50;;
22634;SDS011;11484;50.858;4.384;2023-05-07T03:28:30;5.85;;;3.28;;
22634;SDS011;11484;50.858;4.384;2023-05-07T03:30:55;5.55;;;2.80;;
22634;SDS011;11484;50.858;4.384;2023-05-07T03:33:21;9.05;;;3.22;;
22634;SDS011;11484;50.858;4.384;2023-05-07T03:35:47;4.82;;;2.50;;
22634;SDS011;11484;50.858;4.384;2023-05-07T03:38:12;5.38;;;2.63;;
22634;SDS011;11484;50.858;4.384;2023-05-07T03:40:38;6.22;;;2.70;;
22634;SDS011;11484;50.858;4.384;2023-05-07T03:43:04;5.35;;;2.58;;
22634;SDS011;11484;50.858;4.384;2023-05-07T03:45:30;7.22;;;3.08;;
22634;SDS011;11484;50.858;4.384;2023-05-07T03:47:55;8.90;;;2.90;;
22634;SDS011;11484;50.858;4.384;2023-05-07T03:50:21;6.45;;;2.83;;
22634;SDS011;11484;50.858;4.384;2023-05-07T03:52:46;4.65;;;2.50;;
22634;SDS011;11484;50.858;4.384;2023-05-07T03:55:12;7.60;;;2.63;;
22634;SDS011;11484;50.858;4.384;2023-05-07T03:57:38;7.78;;;3.13;;
22634;SDS011;11484;50.858;4.384;2023-05-07T04:00:04;7.60;;;2.70;;
22634;SDS011;11484;50.858;4.384;2023-05-07T04:02:32;9.07;;;3.00;;
22634;SDS011;11484;50.858;4.384;2023-05-07T04:04:58;5.80;;;2.50;;
22634;SDS011;11484;50.858;4.384;2023-05-07T04:07:23;7.80;;;2.65;;
22634;SDS011;11484;50.858;4.384;2023-05-07T04:09:49;7.63;;;3.20;;
22634;SDS011;11484;50.858;4.384;2023-05-07T04:12:15;6.43;;;2.70;;
22634;SDS011;11484;50.858;4.384;2023-05-07T04:14:40;7.15;;;3.05;;
22634;SDS011;11484;50.858;4.384;2023-05-07T04:17:06;7.03;;;2.83;;
22634;SDS011;11484;50.858;4.384;2023-05-07T04:19:34;6.47;;;3.05;;
22634;SDS011;11484;50.858;4.384;2023-05-07T04:22:00;6.55;;;2.85;;
22634;SDS011;11484;50.858;4.384;2023-05-07T04:24:26;9.20;;;3.15;;
22634;SDS011;11484;50.858;4.384;2023-05-07T04:26:51;5.60;;;2.67;;
22634;SDS011;11484;50.858;4.384;2023-05-07T04:29:17;7.53;;;2.55;;
22634;SDS011;11484;50.858;4.384;2023-05-07T04:31:43;4.13;;;2.78;;
22634;SDS011;11484;50.858;4.384;2023-05-07T04:34:10;6.18;;;3.00;;
22634;SDS011;11484;50.858;4.384;2023-05-07T04:36:37;7.03;;;2.83;;
22634;SDS011;11484;50.858;4.384;2023-05-07T04:39:03;6.30;;;2.97;;
22634;SDS011;11484;50.858;4.384;2023-05-07T04:41:29;6.97;;;3.00;;
22634;SDS011;11484;50.858;4.384;2023-05-07T04:43:55;5.93;;;2.80;;
22634;SDS011;11484;50.858;4.384;2023-05-07T04:46:22;8.45;;;3.15;;
22634;SDS011;11484;50.858;4.384;2023-05-07T04:48:50;6.65;;;3.17;;
22634;SDS011;11484;50.858;4.384;2023-05-07T04:51:16;6.65;;;3.20;;
22634;SDS011;11484;50.858;4.384;2023-05-07T04:53:42;7.30;;;2.95;;
22634;SDS011;11484;50.858;4.384;2023-05-07T04:56:08;6.80;;;2.88;;
22634;SDS011;11484;50.858;4.384;2023-05-07T04:58:33;9.40;;;3.88;;
22634;SDS011;11484;50.858;4.384;2023-05-07T05:00:59;7.82;;;2.95;;
22634;SDS011;11484;50.858;4.384;2023-05-07T05:03:25;7.32;;;2.83;;
22634;SDS011;11484;50.858;4.384;2023-05-07T05:05:51;10.07;;;3.35;;
22634;SDS011;11484;50.858;4.384;2023-05-07T05:08:17;5.30;;;2.70;;
22634;SDS011;11484;50.858;4.384;2023-05-07T05:10:43;8.77;;;3.53;;
22634;SDS011;11484;50.858;4.384;2023-05-07T05:13:09;8.02;;;2.65;;
22634;SDS011;11484;50.858;4.384;2023-05-07T05:15:37;5.07;;;2.55;;
22634;SDS011;11484;50.858;4.384;2023-05-07T05:18:03;7.07;;;2.90;;
22634;SDS011;11484;50.858;4.384;2023-05-07T05:20:29;6.53;;;3.10;;
22634;SDS011;11484;50.858;4.384;2023-05-07T05:22:55;5.93;;;2.60;;
22634;SDS011;11484;50.858;4.384;2023-05-07T05:25:20;5.28;;;2.90;;
22634;SDS011;11484;50.858;4.384;2023-05-07T05:27:46;7.95;;;3.15;;
22634;SDS011;11484;50.858;4.384;2023-05-07T05:30:12;6.32;;;3.22;;
22634;SDS011;11484;50.858;4.384;2023-05-07T05:32:38;6.97;;;3.90;;
22634;SDS011;11484;50.858;4.384;2023-05-07T05:35:04;8.00;;;3.90;;
22634;SDS011;11484;50.858;4.384;2023-05-07T05:37:30;7.72;;;3.20;;
22634;SDS011;11484;50.858;4.384;2023-05-07T05:39:56;5.28;;;3.10;;
22634;SDS011;11484;50.858;4.384;2023-05-07T05:42:22;9.52;;;3.13;;
22634;SDS011;11484;50.858;4.384;2023-05-07T05:44:48;7.32;;;3.47;;
22634;SDS011;11484;50.858;4.384;2023-05-07T05:47:13;6.88;;;3.30;;
22634;SDS011;11484;50.858;4.384;2023-05-07T05:49:39;7.80;;;3.72;;
22634;SDS011;11484;50.858;4.384;2023-05-07T05:52:05;6.50;;;3.70;;
22634;SDS011;11484;50.858;4.384;2023-05-07T05:54:31;7.85;;;3.33;;
22634;SDS011;11484;50.858;4.384;2023-05-07T05:56:56;8.80;;;3.50;;
22634;SDS011;11484;50.858;4.384;2023-05-07T05:59:22;7.57;;;3.78;;
22634;SDS011;11484;50.858;4.384;2023-05-07T06:01:48;9.40;;;4.55;;
22634;SDS011;11484;50.858;4.384;2023-05-07T06:04:14;7.35;;;5.18;;
22634;SDS011;11484;50.858;4.384;2023-05-07T06:06:40;7.53;;;4.05;;
22634;SDS011;11484;50.858;4.384;2023-05-07T06:09:05;12.52;;;4.43;;
22634;SDS011;11484;50.858;4.384;2023-05-07T06:11:31;7.10;;;3.30;;
22634;SDS011;11484;50.858;4.384;2023-05-07T06:13:57;7.13;;;3.15;;
22634;SDS011;11484;50.858;4.384;2023-05-07T06:16:24;6.25;;;3.30;;
22634;SDS011;11484;50.858;4.384;2023-05-07T06:18:50;6.82;;;3.15;;
22634;SDS011;11484;50.858;4.384;2023-05-07T06:21:15;9.52;;;3.63;;
22634;SDS011;11484;50.858;4.384;2023-05-07T06:23:41;9.98;;;3.30;;
22634;SDS011;11484;50.858;4.384;2023-05-07T06:26:07;8.05;;;3.10;;
22634;SDS011;11484;50.858;4.384;2023-05-07T06:28:32;6.30;;;3.20;;
22634;SDS011;11484;50.858;4.384;2023-05-07T06:31:11;9.43;;;2.72;;
22634;SDS011;11484;50.858;4.384;2023-05-07T06:33:41;5.55;;;2.83;;
22634;SDS011;11484;50.858;4.384;2023-05-07T06:36:07;8.93;;;3.22;;
22634;SDS011;11484;50.858;4.384;2023-05-07T06:38:33;9.45;;;3.45;;
22634;SDS011;11484;50.858;4.384;2023-05-07T06:40:59;6.20;;;3.08;;
22634;SDS011;11484;50.858;4.384;2023-05-07T06:43:24;6.53;;;3.00;;
22634;SDS011;11484;50.858;4.384;2023-05-07T06:45:50;7.30;;;2.67;;
22634;SDS011;11484;50.858;4.384;2023-05-07T06:48:16;7.30;;;3.50;;
22634;SDS011;11484;50.858;4.384;2023-05-07T06:50:41;5.78;;;2.80;;
22634;SDS011;11484;50.858;4.384;2023-05-07T06:53:07;7.18;;;2.85;;
22634;SDS011;11484;50.858;4.384;2023-05-07T06:55:33;5.82;;;2.88;;
22634;SDS011;11484;50.858;4.384;2023-05-07T06:57:58;6.68;;;2.80;;
22634;SDS011;11484;50.858;4.384;2023-05-07T07:00:26;7.68;;;3.17;;
22634;SDS011;11484;50.858;4.384;2023-05-07T07:02:53;5.15;;;2.92;;
22634;SDS011;11484;50.858;4.384;2023-05-07T07:05:19;6.97;;;3.13;;
22634;SDS011;11484;50.858;4.384;2023-05-07T07:07:45;5.80;;;2.75;;
22634;SDS011;11484;50.858;4.384;2023-05-07T07:10:17;7.28;;;3.00;;
22634;SDS011;11484;50.858;4.384;2023-05-07T07:12:44;8.18;;;2.88;;
22634;SDS011;11484;50.858;4.384;2023-05-07T07:15:10;6.10;;;2.60;;
22634;SDS011;11484;50.858;4.384;2023-05-07T07:17:36;5.63;;;2.70;;
22634;SDS011;11484;50.858;4.384;2023-05-07T07:20:02;4.20;;;2.50;;
22634;SDS011;11484;50.858;4.384;2023-05-07T07:22:28;5.20;;;2.72;;
22634;SDS011;11484;50.858;4.384;2023-05-07T07:24:54;5.28;;;2.88;;
22634;SDS011;11484;50.858;4.384;2023-05-07T07:27:20;5.35;;;2.60;;
22634;SDS011;11484;50.858;4.384;2023-05-07T07:29:45;8.25;;;3.38;;
22634;SDS011;11484;50.858;4.384;2023-05-07T07:32:11;6.18;;;2.90;;
22634;SDS011;11484;50.858;4.384;2023-05-07T07:34:36;8.10;;;3.10;;
22634;SDS011;11484;50.858;4.384;2023-05-07T07:37:02;5.38;;;2.97;;
22634;SDS011;11484;50.858;4.384;2023-05-07T07:39:31;5.47;;;3.10;;
22634;SDS011;11484;50.858;4.384;2023-05-07T07:41:57;4.70;;;2.45;;
22634;SDS011;11484;50.858;4.384;2023-05-07T07:44:23;4.80;;;3.08;;
22634;SDS011;11484;50.858;4.384;2023-05-07T07:46:48;6.03;;;3.00;;
22634;SDS011;11484;50.858;4.384;2023-05-07T07:49:15;5.45;;;2.58;;
22634;SDS011;11484;50.858;4.384;2023-05-07T07:51:41;5.68;;;2.63;;
22634;SDS011;11484;50.858;4.384;2023-05-07T07:54:07;6.10;;;3.13;;
22634;SDS011;11484;50.858;4.384;2023-05-07T07:56:32;7.18;;;3.53;;
22634;SDS011;11484;50.858;4.384;2023-05-07T07:58:59;6.55;;;3.80;;
22634;SDS011;11484;50.858;4.384;2023-05-07T08:01:25;4.53;;;2.70;;
22634;SDS011;11484;50.858;4.384;2023-05-07T08:03:51;5.95;;;2.70;;
22634;SDS011;11484;50.858;4.384;2023-05-07T08:06:17;4.85;;;3.08;;
22634;SDS011;11484;50.858;4.384;2023-05-07T08:08:43;4.53;;;2.60;;
22634;SDS011;11484;50.858;4.384;2023-05-07T08:11:09;6.20;;;3.05;;
22634;SDS011;11484;50.858;4.384;2023-05-07T08:13:35;4.47;;;2.70;;
22634;SDS011;11484;50.858;4.384;2023-05-07T08:16:01;4.50;;;2.92;;
22634;SDS011;11484;50.858;4.384;2023-05-07T08:18:27;5.82;;;2.90;;
22634;SDS011;11484;50.858;4.384;2023-05-07T08:20:54;4.00;;;2.90;;
22634;SDS011;11484;50.858;4.384;2023-05-07T08:23:20;5.03;;;3.00;;
22634;SDS011;11484;50.858;4.384;2023-05-07T08:25:46;8.38;;;3.20;;
22634;SDS011;11484;50.858;4.384;2023-05-07T08:28:11;5.65;;;3.58;;
22634;SDS011;11484;50.858;4.384;2023-05-07T08:30:37;7.68;;;3.17;;
22634;SDS011;11484;50.858;4.384;2023-05-07T08:33:03;6.00;;;3.25;;
22634;SDS011;11484;50.858;4.384;2023-05-07T08:35:29;5.57;;;3.40;;
22634;SDS011;11484;50.858;4.384;2023-05-07T08:37:55;7.18;;;4.00;;
22634;SDS011;11484;50.858;4.384;2023-05-07T08:40:21;5.32;;;3.15;;
22634;SDS011;11484;50.858;4.384;2023-05-07T08:42:51;8.05;;;3.50;;
22634;SDS011;11484;50.858;4.384;2023-05-07T08:45:18;8.30;;;3.67;;
22634;SDS011;11484;50.858;4.384;2023-05-07T08:47:50;4.28;;;3.20;;
22634;SDS011;11484;50.858;4.384;2023-05-07T08:50:20;6.45;;;3.03;;
22634;SDS011;11484;50.858;4.384;2023-05-07T08:52:47;5.10;;;2.63;;
22634;SDS011;11484;50.858;4.384;2023-05-07T08:55:13;4.00;;;2.70;;
22634;SDS011;11484;50.858;4.384;2023-05-07T08:57:39;5.15;;;2.60;;
22634;SDS011;11484;50.858;4.384;2023-05-07T09:00:04;7.32;;;3.10;;
22634;SDS011;11484;50.858;4.384;2023-05-07T09:02:32;6.45;;;3.63;;
22634;SDS011;11484;50.858;4.384;2023-05-07T09:04:59;5.13;;;2.80;;
22634;SDS011;11484;50.858;4.384;2023-05-07T09:07:25;9.43;;;3.60;;
22634;SDS011;11484;50.858;4.384;2023-05-07T09:09:51;5.90;;;2.75;;
22634;SDS011;11484;50.858;4.384;2023-05-07T09:12:18;6.20;;;2.92;;
22634;SDS011;11484;50.858;4.384;2023-05-07T09:14:45;5.32;;;3.30;;
22634;SDS011;11484;50.858;4.384;2023-05-07T09:17:11;7.43;;;3.13;;
22634;SDS011;11484;50.858;4.384;2023-05-07T09:19:37;5.18;;;3.30;;
22634;SDS011;11484;50.858;4.384;2023-05-07T09:22:04;5.57;;;3.20;;
22634;SDS011;11484;50.858;4.384;2023-05-07T09:24:32;6.97;;;3.50;;
22634;SDS011;11484;50.858;4.384;2023-05-07T09:27:03;7.03;;;3.42;;
22634;SDS011;11484;50.858;4.384;2023-05-07T09:29:29;5.45;;;3.38;;
22634;SDS011;11484;50.858;4.384;2023-05-07T09:32:03;6.60;;;4.00;;
22634;SDS011;11484;50.858;4.384;2023-05-07T09:34:31;5.55;;;3.75;;
22634;SDS011;11484;50.858;4.384;2023-05-07T09:36:58;8.05;;;3.35;;
22634;SDS011;11484;50.858;4.384;2023-05-07T09:39:26;6.93;;;3.45;;
22634;SDS011;11484;50.858;4.384;2023-05-07T09:41:51;5.90;;;3.60;;
22634;SDS011;11484;50.858;4.384;2023-05-07T09:44:20;5.45;;;3.58;;
22634;SDS011;11484;50.858;4.384;2023-05-07T09:46:46;8.48;;;4.50;;
22634;SDS011;11484;50.858;4.384;2023-05-07T09:49:22;5.43;;;3.30;;
22634;SDS011;11484;50.858;4.384;2023-05-07T09:51:49;4.88;;;3.40;;
22634;SDS011;11484;50.858;4.384;2023-05-07T09:54:16;6.28;;;3.67;;
22634;SDS011;11484;50.858;4.384;2023-05-07T09:56:43;6.50;;;3.10;;
22634;SDS011;11484;50.858;4.384;2023-05-07T10:01:42;4.22;;;3.22;;
22634;SDS011;11484;50.858;4.384;2023-05-07T10:04:12;7.97;;;3.00;;
22634;SDS011;11484;50.858;4.384;2023-05-07T10:06:39;4.88;;;2.50;;
22634;SDS011;11484;50.858;4.384;2023-05-07T10:09:06;7.80;;;2.63;;
22634;SDS011;11484;50.858;4.384;2023-05-07T10:11:32;4.07;;;2.63;;
22634;SDS011;11484;50.858;4.384;2023-05-07T10:14:02;4.43;;;2.55;;
22634;SDS011;11484;50.858;4.384;2023-05-07T10:16:34;6.00;;;3.20;;
22634;SDS011;11484;50.858;4.384;2023-05-07T10:19:05;7.47;;;3.28;;
22634;SDS011;11484;50.858;4.384;2023-05-07T10:21:38;4.20;;;2.17;;
22634;SDS011;11484;50.858;4.384;2023-05-07T10:24:09;5.13;;;3.05;;
22634;SDS011;11484;50.858;4.384;2023-05-07T10:26:42;21.05;;;14.90;;
22634;SDS011;11484;50.858;4.384;2023-05-07T10:29:57;4.95;;;3.03;;
22634;SDS011;11484;50.858;4.384;2023-05-07T10:35:16;5.88;;;2.15;;
22634;SDS011;11484;50.858;4.384;2023-05-07T10:37:45;5.22;;;2.33;;
22634;SDS011;11484;50.858;4.384;2023-05-07T10:40:11;5.45;;;2.65;;
22634;SDS011;11484;50.858;4.384;2023-05-07T10:42:38;5.35;;;2.30;;
22634;SDS011;11484;50.858;4.384;2023-05-07T10:45:17;5.43;;;2.30;;
22634;SDS011;11484;50.858;4.384;2023-05-07T10:50:34;4.28;;;2.45;;
22634;SDS011;11484;50.858;4.384;2023-05-07T10:55:48;4.55;;;2.25;;
22634;SDS011;11484;50.858;4.384;2023-05-07T10:58:37;3.47;;;2.40;;
22634;SDS011;11484;50.858;4.384;2023-05-07T11:01:03;4.82;;;2.78;;
22634;SDS011;11484;50.858;4.384;2023-05-07T11:03:29;6.32;;;2.50;;
22634;SDS011;11484;50.858;4.384;2023-05-07T11:06:12;7.03;;;3.30;;
22634;SDS011;11484;50.858;4.384;2023-05-07T11:08:53;5.18;;;2.72;;
22634;SDS011;11484;50.858;4.384;2023-05-07T11:11:19;5.68;;;2.78;;
22634;SDS011;11484;50.858;4.384;2023-05-07T11:14:05;4.85;;;2.65;;
22634;SDS011;11484;50.858;4.384;2023-05-07T11:16:31;2.97;;;2.25;;
22634;SDS011;11484;50.858;4.384;2023-05-07T11:19:00;3.80;;;2.58;;
22634;SDS011;11484;50.858;4.384;2023-05-07T11:21:36;5.55;;;2.72;;
22634;SDS011;11484;50.858;4.384;2023-05-07T11:24:02;5.80;;;2.83;;
22634;SDS011;11484;50.858;4.384;2023-05-07T11:26:30;3.15;;;2.15;;
22634;SDS011;11484;50.858;4.384;2023-05-07T11:29:19;3.95;;;2.30;;
22634;SDS011;11484;50.858;4.384;2023-05-07T11:31:50;6.30;;;3.10;;
22634;SDS011;11484;50.858;4.384;2023-05-07T11:34:20;5.80;;;2.55;;
22634;SDS011;11484;50.858;4.384;2023-05-07T11:36:47;4.05;;;1.80;;
22634;SDS011;11484;50.858;4.384;2023-05-07T11:39:28;5.38;;;2.30;;
22634;SDS011;11484;50.858;4.384;2023-05-07T11:44:24;4.57;;;2.10;;
22634;SDS011;11484;50.858;4.384;2023-05-07T11:46:51;4.28;;;2.33;;
22634;SDS011;11484;50.858;4.384;2023-05-07T11:49:19;3.38;;;2.10;;
22634;SDS011;11484;50.858;4.384;2023-05-07T11:51:45;4.18;;;2.10;;
22634;SDS011;11484;50.858;4.384;2023-05-07T11:54:11;2.78;;;1.80;;
22634;SDS011;11484;50.858;4.384;2023-05-07T11:56:41;3.50;;;1.80;;
22634;SDS011;11484;50.858;4.384;2023-05-07T11:59:06;3.50;;;1.70;;
22634;SDS011;11484;50.858;4.384;2023-05-07T12:01:34;2.65;;;1.50;;
22634;SDS011;11484;50.858;4.384;2023-05-07T12:04:00;2.33;;;1.52;;
22634;SDS011;11484;50.858;4.384;2023-05-07T12:06:28;2.67;;;1.50;;
22634;SDS011;11484;50.858;4.384;2023-05-07T12:08:53;3.05;;;1.52;;
22634;SDS011;11484;50.858;4.384;2023-05-07T12:11:23;4.28;;;1.67;;
22634;SDS011;11484;50.858;4.384;2023-05-07T12:13:50;2.72;;;1.50;;
22634;SDS011;11484;50.858;4.384;2023-05-07T12:16:19;4.22;;;1.70;;
22634;SDS011;11484;50.858;4.384;2023-05-07T12:18:46;2.58;;;1.45;;
22634;SDS011;11484;50.858;4.384;2023-05-07T12:21:12;5.20;;;1.85;;
22634;SDS011;11484;50.858;4.384;2023-05-07T12:23:38;3.65;;;2.13;;
22634;SDS011;11484;50.858;4.384;2023-05-07T12:26:04;5.35;;;2.80;;
22634;SDS011;11484;50.858;4.384;2023-05-07T12:28:31;3.78;;;2.72;;
22634;SDS011;11484;50.858;4.384;2023-05-07T12:31:01;5.43;;;3.53;;
22634;SDS011;11484;50.858;4.384;2023-05-07T12:33:28;4.32;;;2.45;;
22634;SDS011;11484;50.858;4.384;2023-05-07T12:36:00;3.97;;;2.80;;
22634;SDS011;11484;50.858;4.384;2023-05-07T12:38:32;5.80;;;3.55;;
22634;SDS011;11484;50.858;4.384;2023-05-07T12:41:02;3.65;;;2.30;;
22634;SDS011;11484;50.858;4.384;2023-05-07T12:43:29;4.53;;;2.58;;
22634;SDS011;11484;50.858;4.384;2023-05-07T12:45:55;4.35;;;2.70;;
22634;SDS011;11484;50.858;4.384;2023-05-07T12:48:23;4.15;;;2.40;;
22634;SDS011;11484;50.858;4.384;2023-05-07T12:50:53;3.72;;;2.90;;
22634;SDS011;11484;50.858;4.384;2023-05-07T12:53:20;4.72;;;2.78;;
22634;SDS011;11484;50.858;4.384;2023-05-07T12:55:49;4.80;;;3.00;;
22634;SDS011;11484;50.858;4.384;2023-05-07T13:00:42;6.68;;;4.05;;
22634;SDS011;11484;50.858;4.384;2023-05-07T13:03:08;4.22;;;3.00;;
22634;SDS011;11484;50.858;4.384;2023-05-07T13:05:34;4.43;;;2.85;;
22634;SDS011;11484;50.858;4.384;2023-05-07T13:08:00;3.83;;;2.85;;
22634;SDS011;11484;50.858;4.384;2023-05-07T13:10:26;4.65;;;3.42;;
22634;SDS011;11484;50.858;4.384;2023-05-07T13:12:53;5.00;;;3.55;;
22634;SDS011;11484;50.858;4.384;2023-05-07T13:15:19;5.18;;;3.33;;
22634;SDS011;11484;50.858;4.384;2023-05-07T13:17:44;3.60;;;3.03;;
22634;SDS011;11484;50.858;4.384;2023-05-07T13:20:10;5.32;;;3.42;;
22634;SDS011;11484;50.858;4.384;2023-05-07T13:22:37;4.47;;;3.30;;
22634;SDS011;11484;50.858;4.384;2023-05-07T13:25:04;5.18;;;3.60;;
22634;SDS011;11484;50.858;4.384;2023-05-07T13:27:30;5.03;;;3.63;;
22634;SDS011;11484;50.858;4.384;2023-05-07T13:29:57;5.85;;;3.92;;
22634;SDS011;11484;50.858;4.384;2023-05-07T13:32:22;5.10;;;3.70;;
22634;SDS011;11484;50.858;4.384;2023-05-07T13:34:48;6.38;;;3.63;;
22634;SDS011;11484;50.858;4.384;2023-05-07T13:37:14;6.97;;;4.63;;
22634;SDS011;11484;50.858;4.384;2023-05-07T13:39:39;7.57;;;5.18;;
22634;SDS011;11484;50.858;4.384;2023-05-07T13:42:06;9.85;;;5.65;;
22634;SDS011;11484;50.858;4.384;2023-05-07T13:44:32;7.82;;;5.68;;
22634;SDS011;11484;50.858;4.384;2023-05-07T13:46:58;9.93;;;6.13;;
22634;SDS011;11484;50.858;4.384;2023-05-07T13:49:24;6.40;;;5.28;;
22634;SDS011;11484;50.858;4.384;2023-05-07T13:51:49;7.82;;;5.85;;
22634;SDS011;11484;50.858;4.384;2023-05-07T13:54:15;8.27;;;5.82;;
22634;SDS011;11484;50.858;4.384;2023-05-07T13:56:41;7.53;;;5.72;;
22634;SDS011;11484;50.858;4.384;2023-05-07T13:59:06;9.90;;;6.93;;
22634;SDS011;11484;50.858;4.384;2023-05-07T14:01:33;10.02;;;7.40;;
22634;SDS011;11484;50.858;4.384;2023-05-07T14:03:59;8.65;;;7.00;;
22634;SDS011;11484;50.858;4.384;2023-05-07T14:06:24;9.45;;;7.35;;
22634;SDS011;11484;50.858;4.384;2023-05-07T14:08:50;10.70;;;7.57;;
22634;SDS011;11484;50.858;4.384;2023-05-07T14:11:16;9.35;;;7.68;;
22634;SDS011;11484;50.858;4.384;2023-05-07T14:13:42;12.82;;;9.15;;
22634;SDS011;11484;50.858;4.384;2023-05-07T14:16:08;11.23;;;9.20;;
22634;SDS011;11484;50.858;4.384;2023-05-07T14:18:33;9.60;;;7.82;;
22634;SDS011;11484;50.858;4.384;2023-05-07T14:21:00;8.82;;;7.35;;
22634;SDS011;11484;50.858;4.384;2023-05-07T14:23:26;8.25;;;6.70;;
22634;SDS011;11484;50.858;4.384;2023-05-07T14:25:52;10.63;;;7.75;;
22634;SDS011;11484;50.858;4.384;2023-05-07T14:28:18;11.35;;;6.93;;
22634;SDS011;11484;50.858;4.384;2023-05-07T14:30:44;9.68;;;6.78;;
22634;SDS011;11484;50.858;4.384;2023-05-07T14:33:10;9.50;;;6.65;;
22634;SDS011;11484;50.858;4.384;2023-05-07T14:35:36;8.70;;;6.93;;
22634;SDS011;11484;50.858;4.384;2023-05-07T14:38:02;16.40;;;10.50;;
22634;SDS011;11484;50.858;4.384;2023-05-07T14:40:27;23.38;;;13.10;;
22634;SDS011;11484;50.858;4.384;2023-05-07T14:42:53;15.80;;;9.73;;
22634;SDS011;11484;50.858;4.384;2023-05-07T14:45:20;13.70;;;9.07;;
22634;SDS011;11484;50.858;4.384;2023-05-07T14:47:46;11.63;;;7.60;;
22634;SDS011;11484;50.858;4.384;2023-05-07T14:50:11;13.65;;;10.80;;
22634;SDS011;11484;50.858;4.384;2023-05-07T14:52:37;11.88;;;7.85;;
22634;SDS011;11484;50.858;4.384;2023-05-07T14:55:03;11.23;;;7.28;;
22634;SDS011;11484;50.858;4.384;2023-05-07T14:57:29;10.65;;;7.32;;
22634;SDS011;11484;50.858;4.384;2023-05-07T14:59:59;11.05;;;7.78;;
22634;SDS011;11484;50.858;4.384;2023-05-07T15:02:26;12.20;;;8.32;;